createdAt,value
2022-08-04T00:00:00.454Z,54.27
2022-08-04T00:03:02.402Z,53.39
2022-08-04T00:05:32.044Z,53.67
2022-08-04T00:08:20.610Z,53.28
2022-08-04T00:10:55.031Z,53.31
2022-08-04T00:13:27.769Z,52.77
2022-08-04T00:15:58.712Z,50.19
2022-08-04T00:18:41.896Z,51.13
2022-08-04T00:21:14.909Z,53.03
2022-08-04T00:24:10.716Z,52.64
2022-08-04T00:26:33.561Z,53.00
2022-08-04T00:29:01.170Z,52.65
2022-08-04T00:31:33.241Z,52.68
2022-08-04T00:34:16.075Z,52.33
2022-08-04T00:36:45.959Z,52.98
2022-08-04T00:39:14.532Z,53.17
2022-08-04T00:42:07.063Z,53.32
2022-08-04T00:44:50.589Z,52.98
2022-08-04T00:47:42.042Z,52.82
2022-08-04T00:50:16.438Z,53.08
2022-08-04T00:53:05.388Z,52.65
2022-08-04T00:55:57.572Z,52.71
2022-08-04T00:59:01.588Z,50.89
2022-08-04T01:01:37.211Z,51.46
2022-08-04T01:04:15.886Z,51.78
2022-08-04T01:07:12.294Z,51.39
2022-08-04T01:10:01.501Z,51.09
2022-08-04T01:12:31.263Z,51.67
2022-08-04T01:15:18.078Z,51.40
2022-08-04T01:18:07.410Z,50.86
2022-08-04T01:21:00.186Z,51.21
2022-08-04T01:24:04.457Z,51.80
2022-08-04T01:26:57.617Z,51.36
2022-08-04T01:29:36.403Z,50.65
2022-08-04T01:32:19.240Z,50.80
2022-08-04T01:35:46.711Z,52.64
2022-08-04T01:38:23.322Z,53.44
2022-08-04T01:40:55.338Z,53.74
2022-08-04T01:43:23.641Z,53.16
2022-08-04T01:45:56.947Z,52.72
2022-08-04T01:48:25.779Z,52.26
2022-08-04T01:50:54.083Z,51.51
2022-08-04T01:53:22.088Z,51.54
2022-08-04T01:55:55.551Z,52.16
2022-08-04T01:58:25.090Z,52.06
2022-08-04T02:01:05.254Z,51.80
2022-08-04T02:04:20.873Z,51.71
2022-08-04T02:06:50.004Z,51.90
2022-08-04T02:09:27.099Z,51.93
2022-08-04T02:12:05.603Z,52.00
2022-08-04T02:14:56.103Z,52.32
2022-08-04T02:17:30.295Z,52.25
2022-08-04T02:20:03.607Z,51.94
2022-08-04T02:22:33.391Z,52.05
2022-08-04T02:25:24.317Z,53.04
2022-08-04T02:28:00.024Z,52.85
2022-08-04T02:30:57.291Z,52.44
2022-08-04T02:33:36.054Z,52.55
2022-08-04T02:36:05.675Z,51.97
2022-08-04T02:38:42.652Z,52.16
2022-08-04T02:41:11.393Z,51.98
2022-08-04T02:43:51.109Z,51.86
2022-08-04T02:46:21.496Z,51.13
2022-08-04T02:48:51.198Z,51.00
2022-08-04T02:51:25.085Z,50.97
2022-08-04T02:53:56.151Z,51.40
2022-08-04T02:56:24.943Z,51.52
2022-08-04T02:58:56.599Z,51.48
2022-08-04T03:01:24.234Z,52.51
2022-08-04T03:04:24.482Z,52.82
2022-08-04T03:07:15.620Z,52.29
2022-08-04T03:09:51.719Z,53.15
2022-08-04T03:12:58.923Z,52.11
2022-08-04T03:15:52.298Z,51.39
2022-08-04T03:18:40.210Z,50.33
2022-08-04T03:21:15.987Z,52.26
2022-08-04T03:24:20.463Z,52.02
2022-08-04T03:26:50.147Z,51.27
2022-08-04T03:29:40.089Z,52.50
2022-08-04T03:32:21.592Z,51.99
2022-08-04T03:35:22.669Z,51.76
2022-08-04T03:38:05.274Z,51.69
2022-08-04T03:40:40.488Z,52.04
2022-08-04T03:43:57.197Z,52.63
2022-08-04T03:46:29.307Z,52.58
2022-08-04T03:49:23.795Z,52.22
2022-08-04T03:52:30.788Z,52.62
2022-08-04T03:55:38.717Z,54.46
2022-08-04T03:58:30.554Z,54.82
2022-08-04T04:02:01.387Z,54.82
2022-08-04T04:04:55.254Z,53.75
2022-08-04T04:07:38.644Z,54.37
2022-08-04T04:10:43.585Z,54.08
2022-08-04T04:13:33.185Z,54.71
2022-08-04T04:16:11.061Z,54.66
2022-08-04T04:19:06.860Z,53.38
2022-08-04T04:21:56.926Z,53.86
2022-08-04T04:24:35.844Z,54.52
2022-08-04T04:27:34.304Z,52.90
2022-08-04T04:30:04.029Z,53.64
2022-08-04T04:33:09.019Z,54.07
2022-08-04T04:36:03.459Z,53.19
2022-08-04T04:38:42.087Z,53.59
2022-08-04T04:41:21.381Z,52.63
2022-08-04T04:44:06.967Z,52.82
2022-08-04T04:47:16.187Z,53.17
2022-08-04T04:49:54.606Z,52.43
2022-08-04T04:52:28.354Z,53.23
2022-08-04T04:55:21.116Z,53.52
2022-08-04T04:57:53.051Z,53.59
2022-08-04T05:00:25.250Z,52.74
2022-08-04T05:03:01.110Z,54.23
2022-08-04T05:05:44.371Z,56.42
2022-08-04T05:08:43.686Z,56.42
2022-08-04T05:11:44.567Z,55.09
2022-08-04T05:14:36.198Z,56.37
2022-08-04T05:17:27.162Z,56.79
2022-08-04T05:20:48.245Z,54.12
2022-08-04T05:23:23.220Z,54.34
2022-08-04T05:25:59.207Z,56.42
2022-08-04T05:28:36.883Z,54.52
2022-08-04T05:31:26.063Z,52.12
2022-08-04T05:34:07.412Z,52.15
2022-08-04T05:36:43.295Z,52.03
2022-08-04T05:39:21.779Z,53.11
2022-08-04T05:41:55.694Z,50.79
2022-08-04T05:44:26.775Z,49.37
2022-08-04T05:46:57.095Z,49.39
2022-08-04T05:49:26.166Z,52.00
2022-08-04T05:51:55.958Z,51.74
2022-08-04T05:54:24.425Z,51.14
2022-08-04T05:56:53.659Z,50.62
2022-08-04T05:59:20.824Z,49.67
2022-08-04T06:01:56.006Z,51.86
2022-08-04T06:04:31.146Z,50.40
2022-08-04T06:06:57.998Z,50.12
2022-08-04T06:09:25.076Z,50.99
2022-08-04T06:11:54.614Z,51.48
2022-08-04T06:14:39.569Z,50.22
2022-08-04T06:18:33.621Z,49.48
2022-08-04T06:20:20.007Z,49.76
2022-08-04T06:22:49.521Z,48.78
2022-08-04T06:25:21.639Z,51.39
2022-08-04T06:27:50.090Z,50.42
2022-08-04T06:30:19.461Z,49.48
2022-08-04T06:33:03.458Z,49.12
2022-08-04T06:35:33.023Z,49.11
2022-08-04T06:38:01.663Z,51.95
2022-08-04T06:40:33.356Z,53.15
2022-08-04T06:43:03.864Z,52.47
2022-08-04T06:45:31.958Z,50.90
2022-08-04T06:48:01.666Z,50.33
2022-08-04T06:51:32.783Z,49.58
2022-08-04T06:53:17.436Z,50.28
2022-08-04T06:55:46.310Z,51.61
2022-08-04T06:58:14.943Z,52.18
2022-08-04T07:00:44.448Z,52.31
2022-08-04T07:03:12.152Z,53.03
2022-08-04T07:05:40.996Z,51.37
2022-08-04T07:08:11.181Z,50.13
2022-08-04T07:10:39.313Z,52.49
2022-08-04T07:13:07.642Z,51.24
2022-08-04T07:15:36.025Z,50.89
2022-08-04T07:18:04.842Z,48.81
2022-08-04T07:20:35.685Z,49.23
2022-08-04T07:23:07.402Z,47.55
2022-08-04T07:26:11.433Z,47.01
2022-08-04T07:28:26.769Z,45.74
2022-08-04T07:30:55.115Z,45.00
2022-08-04T07:33:23.176Z,44.93
2022-08-04T07:36:09.717Z,44.28
2022-08-04T07:38:50.822Z,44.74
2022-08-04T07:41:40.700Z,45.73
2022-08-04T07:44:09.371Z,47.29
2022-08-04T07:46:37.231Z,46.13
2022-08-04T07:49:04.973Z,45.89
2022-08-04T07:51:32.458Z,44.08
2022-08-04T07:54:00.946Z,44.37
2022-08-04T07:56:28.475Z,45.18
2022-08-04T07:58:56.021Z,44.20
2022-08-04T08:01:27.145Z,44.42
2022-08-04T08:03:56.382Z,43.45
2022-08-04T08:06:33.140Z,46.06
2022-08-04T08:09:13.781Z,44.11
2022-08-04T08:12:36.928Z,42.55
2022-08-04T08:14:37.127Z,43.65
2022-08-04T08:17:04.930Z,42.64
2022-08-04T08:19:32.860Z,42.52
2022-08-04T08:22:01.847Z,42.21
2022-08-04T08:24:35.944Z,41.47
2022-08-04T08:27:07.066Z,41.27
2022-08-04T08:29:35.611Z,40.87
2022-08-04T08:32:08.231Z,39.23
2022-08-04T08:34:37.853Z,39.31
2022-08-04T08:37:24.402Z,40.52
2022-08-04T08:40:10.964Z,41.80
2022-08-04T08:42:40.487Z,38.97
2022-08-04T08:45:31.193Z,38.86
2022-08-04T08:56:31.206Z,40.65
2022-08-04T08:59:35.952Z,39.14
2022-08-04T09:02:40.152Z,37.61
2022-08-04T09:05:18.777Z,38.47
2022-08-04T09:08:27.142Z,36.52
2022-08-04T09:11:23.355Z,37.55
2022-08-04T09:13:57.315Z,37.71
2022-08-04T09:16:26.689Z,35.21
2022-08-04T09:19:08.492Z,35.25
2022-08-04T09:21:56.716Z,34.04
2022-08-04T09:24:47.280Z,34.56
2022-08-04T09:27:20.054Z,33.86
2022-08-04T09:29:58.236Z,33.40
2022-08-04T09:32:44.669Z,33.76
2022-08-04T09:35:15.134Z,33.44
2022-08-04T09:38:03.486Z,33.98
2022-08-04T09:40:53.794Z,32.69
2022-08-04T09:44:42.836Z,32.55
2022-08-04T09:46:40.601Z,32.82
2022-08-04T09:49:16.567Z,34.84
2022-08-04T09:51:58.295Z,34.30
2022-08-04T09:54:30.486Z,33.16
2022-08-04T09:57:07.757Z,32.46
2022-08-04T10:00:05.035Z,33.28
2022-08-04T10:02:42.751Z,33.24
2022-08-04T10:05:14.988Z,33.77
2022-08-04T10:08:15.331Z,34.25
2022-08-04T10:11:22.034Z,33.33
2022-08-04T10:13:56.558Z,32.29
2022-08-04T10:16:45.155Z,31.40
2022-08-04T10:19:33.091Z,32.15
2022-08-04T10:22:27.311Z,30.52
2022-08-04T10:25:44.459Z,31.70
2022-08-04T10:28:09.360Z,30.66
2022-08-04T10:30:40.619Z,30.79
2022-08-04T10:33:49.432Z,31.35
2022-08-04T10:36:21.315Z,31.60
2022-08-04T10:38:57.072Z,31.97
2022-08-04T10:41:42.300Z,31.82
2022-08-04T10:44:53.233Z,31.52
2022-08-04T10:47:32.055Z,30.21
2022-08-04T10:50:01.417Z,28.46
2022-08-04T10:52:36.151Z,28.29
2022-08-04T10:55:13.334Z,29.09
2022-08-04T10:57:46.764Z,29.10
2022-08-04T11:00:16.492Z,29.62
2022-08-04T11:02:58.515Z,28.56
2022-08-04T11:05:59.143Z,27.69
2022-08-04T11:08:33.395Z,26.75
2022-08-04T11:12:01.742Z,26.68
2022-08-04T11:14:39.260Z,25.83
2022-08-04T11:17:14.401Z,24.93
2022-08-04T11:20:24.884Z,26.28
2022-08-04T11:23:00.841Z,26.37
2022-08-04T11:25:33.239Z,25.67
2022-08-04T11:28:03.995Z,23.49
2022-08-04T11:31:04.813Z,24.20
2022-08-04T11:33:46.483Z,25.57
2022-08-04T11:36:25.110Z,25.72
2022-08-04T11:39:30.672Z,23.85
2022-08-04T11:42:22.766Z,25.00
2022-08-04T11:44:56.047Z,24.45
2022-08-04T11:47:33.027Z,26.68
2022-08-04T11:50:08.808Z,25.65
2022-08-04T11:52:39.868Z,25.90
2022-08-04T11:55:11.343Z,25.59
2022-08-04T11:57:39.265Z,26.11
2022-08-04T12:00:10.262Z,25.31
2022-08-04T12:02:40.147Z,24.71
2022-08-04T12:05:09.289Z,25.33
2022-08-04T12:08:03.352Z,23.33
2022-08-04T12:10:47.918Z,23.92
2022-08-04T12:13:42.051Z,24.64
2022-08-04T12:16:17.714Z,25.67
2022-08-04T12:18:54.872Z,25.39
2022-08-04T12:21:53.066Z,23.87
2022-08-04T12:24:28.027Z,24.74
2022-08-04T12:26:59.689Z,25.65
2022-08-04T12:29:31.481Z,25.08
2022-08-04T12:32:03.731Z,24.04
2022-08-04T12:34:46.109Z,24.25
2022-08-04T12:37:24.317Z,26.13
2022-08-04T12:40:27.417Z,25.81
2022-08-04T12:43:22.565Z,24.71
2022-08-04T12:45:52.108Z,24.34
2022-08-04T12:48:21.520Z,23.97
2022-08-04T12:50:54.016Z,23.68
2022-08-04T12:53:31.469Z,24.75
2022-08-04T12:56:02.401Z,26.41
2022-08-04T12:58:42.885Z,25.95
2022-08-04T13:02:08.594Z,25.20
2022-08-04T13:04:15.483Z,26.09
2022-08-04T13:06:44.599Z,25.91
2022-08-04T13:09:17.525Z,24.69
2022-08-04T13:11:53.090Z,25.63
2022-08-04T13:14:28.461Z,25.93
2022-08-04T13:17:01.110Z,26.97
2022-08-04T13:19:29.879Z,25.78
2022-08-04T13:22:02.971Z,24.48
2022-08-04T13:24:34.777Z,23.77
2022-08-04T13:27:16.130Z,23.35
2022-08-04T13:29:58.180Z,23.15
2022-08-04T13:32:29.708Z,24.04
2022-08-04T13:35:00.010Z,22.97
2022-08-04T13:37:33.779Z,22.57
2022-08-04T13:40:06.554Z,22.57
2022-08-04T13:42:38.745Z,21.20
2022-08-04T13:45:08.737Z,21.03
2022-08-04T13:47:39.152Z,22.11
2022-08-04T13:50:11.664Z,22.42
2022-08-04T13:52:40.642Z,20.98
2022-08-04T13:55:09.118Z,20.38
2022-08-04T13:57:45.090Z,21.75
2022-08-04T14:00:12.657Z,22.21
2022-08-04T14:02:42.802Z,22.68
2022-08-04T14:05:27.264Z,23.37
2022-08-04T14:08:26.433Z,22.92
2022-08-04T14:10:57.019Z,22.86
2022-08-04T14:13:41.814Z,22.20
2022-08-04T14:16:34.900Z,20.77
2022-08-04T14:19:01.941Z,20.65
2022-08-04T14:21:28.855Z,20.81
2022-08-04T14:23:57.332Z,21.13
2022-08-04T14:26:35.355Z,21.39
2022-08-04T14:29:26.342Z,20.93
2022-08-04T14:32:05.919Z,21.22
2022-08-04T14:34:44.797Z,22.39
2022-08-04T14:37:20.674Z,21.98
2022-08-04T14:40:08.661Z,21.80
2022-08-04T14:42:55.856Z,21.79
2022-08-04T14:45:34.340Z,21.77
2022-08-04T14:48:02.826Z,21.25
2022-08-04T14:50:35.357Z,20.68
2022-08-04T14:53:23.177Z,20.82
2022-08-04T14:55:53.491Z,21.11
2022-08-04T14:58:36.168Z,20.80
2022-08-04T15:01:10.159Z,21.56
2022-08-04T15:03:49.956Z,21.26
2022-08-04T15:06:27.900Z,21.78
2022-08-04T15:08:57.623Z,20.96
2022-08-04T15:11:25.001Z,21.01
2022-08-04T15:13:56.640Z,21.06
2022-08-04T15:16:24.891Z,22.46
2022-08-04T15:18:54.621Z,22.79
2022-08-04T15:21:25.964Z,22.95
2022-08-04T15:23:52.902Z,22.68
2022-08-04T15:26:32.240Z,24.80
2022-08-04T15:29:06.880Z,22.54
2022-08-04T15:32:03.950Z,23.38
2022-08-04T15:34:25.898Z,23.85
2022-08-04T15:36:57.997Z,24.24
2022-08-04T15:39:36.147Z,24.09
2022-08-04T15:42:23.952Z,23.73
2022-08-04T15:45:19.071Z,25.13
2022-08-04T15:48:05.725Z,24.20
2022-08-04T15:50:32.867Z,24.18
2022-08-04T15:53:12.615Z,24.02
2022-08-04T15:55:43.132Z,25.14
2022-08-04T15:58:13.073Z,23.56
2022-08-04T16:00:54.740Z,24.84
2022-08-04T16:03:59.161Z,23.42
2022-08-04T16:06:23.794Z,25.38
2022-08-04T16:09:01.254Z,25.04
2022-08-04T16:11:36.862Z,24.06
2022-08-04T16:14:09.531Z,24.47
2022-08-04T16:16:50.013Z,25.15
2022-08-04T16:19:41.283Z,24.69
2022-08-04T16:22:12.194Z,24.08
2022-08-04T16:24:40.744Z,25.08
2022-08-04T16:27:14.426Z,25.16
2022-08-04T16:29:42.922Z,24.58
2022-08-04T16:32:12.433Z,25.34
2022-08-04T16:34:48.954Z,24.56
2022-08-04T16:37:20.025Z,24.51
2022-08-04T16:39:50.189Z,24.47
2022-08-04T16:42:31.744Z,24.84
2022-08-04T16:45:09.226Z,25.61
2022-08-04T16:47:49.206Z,26.14
2022-08-04T16:50:24.775Z,26.27
2022-08-04T16:52:53.817Z,25.32
2022-08-04T16:55:28.712Z,25.35
2022-08-04T16:57:58.870Z,25.38
2022-08-04T17:00:34.972Z,25.56
2022-08-04T17:03:11.573Z,25.88
2022-08-04T17:05:40.419Z,25.54
2022-08-04T17:10:56.324Z,25.96
2022-08-04T17:14:03.552Z,26.46
2022-08-04T17:16:24.015Z,27.43
2022-08-04T17:18:53.668Z,26.64
2022-08-04T17:21:23.863Z,27.28
2022-08-04T17:24:15.932Z,27.89
2022-08-04T17:26:51.946Z,26.47
2022-08-04T17:29:43.774Z,26.91
2022-08-04T17:32:21.645Z,27.38
2022-08-04T17:34:59.971Z,27.60
2022-08-04T17:37:38.815Z,26.92
2022-08-04T17:40:22.744Z,28.98
2022-08-04T17:44:00.926Z,28.94
2022-08-04T17:46:28.257Z,30.25
2022-08-04T17:49:03.295Z,29.91
2022-08-04T17:52:04.549Z,30.47
2022-08-04T17:54:29.903Z,30.17
2022-08-04T17:57:21.696Z,29.99
2022-08-04T17:59:56.725Z,30.61
2022-08-04T18:02:32.664Z,29.46
2022-08-04T18:05:07.826Z,30.83
2022-08-04T18:10:54.324Z,29.40
2022-08-04T18:13:26.469Z,29.31
2022-08-04T18:16:14.272Z,28.53
2022-08-04T18:19:08.828Z,29.47
2022-08-04T18:21:46.881Z,29.52
2022-08-04T18:24:35.147Z,29.57
2022-08-04T18:27:09.753Z,29.24
2022-08-04T18:29:41.798Z,30.44
2022-08-04T18:32:32.962Z,30.28
2022-08-04T18:35:05.735Z,29.22
2022-08-04T18:38:06.528Z,28.74
2022-08-04T18:40:30.177Z,29.70
2022-08-04T18:43:02.210Z,29.34
2022-08-04T18:45:34.679Z,30.41
2022-08-04T18:48:04.224Z,30.84
2022-08-04T18:51:11.157Z,29.84
2022-08-04T18:53:35.660Z,31.33
2022-08-04T18:56:06.325Z,31.67
2022-08-04T18:58:52.103Z,32.13
2022-08-04T19:01:19.930Z,32.32
2022-08-04T19:03:54.022Z,31.75
2022-08-04T19:06:26.065Z,32.86
2022-08-04T19:08:54.356Z,32.17
2022-08-04T19:11:54.644Z,31.96
2022-08-04T19:14:13.220Z,31.73
2022-08-04T19:16:41.500Z,31.97
2022-08-04T19:19:13.884Z,32.08
2022-08-04T19:22:00.608Z,34.01
2022-08-04T19:24:34.458Z,32.88
2022-08-04T19:27:07.470Z,33.95
2022-08-04T19:29:45.119Z,32.28
2022-08-04T19:32:15.784Z,33.14
2022-08-04T19:34:47.876Z,33.85
2022-08-04T19:37:55.969Z,34.18
2022-08-04T19:40:09.526Z,34.63
2022-08-04T19:42:37.078Z,35.81
2022-08-04T19:45:04.621Z,36.74
2022-08-04T19:48:16.912Z,37.02
2022-08-04T19:50:18.491Z,37.37
2022-08-04T19:52:51.325Z,38.01
2022-08-04T19:55:36.666Z,37.04
2022-08-04T19:58:08.713Z,35.90
2022-08-04T20:00:37.773Z,36.35
2022-08-04T20:03:11.217Z,35.79
2022-08-04T20:05:55.339Z,36.85
2022-08-04T20:08:26.509Z,37.02
2022-08-04T20:10:55.460Z,38.07
2022-08-04T20:13:25.528Z,38.74
2022-08-04T20:16:00.797Z,38.73
2022-08-04T20:18:35.515Z,38.63
2022-08-04T20:21:11.200Z,37.34
2022-08-04T20:23:50.017Z,38.66
2022-08-04T20:26:17.370Z,39.63
2022-08-04T20:28:45.828Z,38.57
2022-08-04T20:31:18.737Z,40.02
2022-08-04T20:33:53.460Z,38.38
2022-08-04T20:36:21.317Z,39.80
2022-08-04T20:38:52.575Z,39.06
2022-08-04T20:41:23.270Z,38.16
2022-08-04T20:43:50.831Z,38.12
2022-08-04T20:46:29.541Z,39.78
2022-08-04T20:48:57.979Z,38.54
2022-08-04T20:51:33.507Z,38.47
2022-08-04T20:54:16.538Z,39.13
2022-08-04T20:56:45.053Z,38.41
2022-08-04T20:59:18.746Z,38.26
2022-08-04T21:01:49.066Z,38.79
2022-08-04T21:04:31.748Z,39.60
2022-08-04T21:06:59.950Z,38.76
2022-08-04T21:09:38.429Z,39.53
2022-08-04T21:12:28.486Z,38.73
2022-08-04T21:14:59.999Z,38.80
2022-08-04T21:17:58.421Z,38.91
2022-08-04T21:20:14.224Z,38.57
2022-08-04T21:22:54.204Z,38.83
2022-08-04T21:25:22.310Z,41.03
2022-08-04T21:27:49.805Z,40.81
2022-08-04T21:30:25.048Z,39.79
2022-08-04T21:35:40.521Z,41.11
2022-08-04T21:38:17.106Z,40.56
2022-08-04T21:41:01.963Z,41.06
2022-08-04T21:43:42.412Z,42.04
2022-08-04T21:46:11.354Z,41.32
2022-08-04T21:48:39.085Z,42.25
2022-08-04T21:51:59.017Z,41.54
2022-08-04T21:54:17.071Z,41.48
2022-08-04T21:56:50.625Z,40.57
2022-08-04T21:59:18.592Z,41.47
2022-08-04T22:01:57.368Z,41.11
2022-08-04T22:04:26.928Z,42.07
2022-08-04T22:06:53.779Z,42.83
2022-08-04T22:09:22.018Z,41.31
2022-08-04T22:11:50.813Z,41.61
2022-08-04T22:14:27.334Z,41.74
2022-08-04T22:16:57.379Z,41.81
2022-08-04T22:19:39.905Z,41.26
2022-08-04T22:22:12.594Z,42.13
2022-08-04T22:24:40.547Z,42.70
2022-08-04T22:27:11.438Z,41.67
2022-08-04T22:29:39.214Z,42.52
2022-08-04T22:32:11.338Z,42.06
2022-08-04T22:34:45.360Z,42.46
2022-08-04T22:37:12.761Z,42.57
2022-08-04T22:39:56.145Z,42.67
2022-08-04T22:42:24.235Z,42.96
2022-08-04T22:44:52.176Z,43.28
2022-08-04T22:47:20.631Z,42.78
2022-08-04T22:49:56.453Z,43.24
2022-08-04T22:52:34.231Z,43.25
2022-08-04T22:55:00.967Z,42.65
2022-08-04T22:57:42.935Z,41.94
2022-08-04T23:00:15.951Z,41.43
2022-08-04T23:02:43.394Z,41.50
2022-08-04T23:05:11.035Z,41.55
2022-08-04T23:07:49.531Z,41.48
2022-08-04T23:10:18.312Z,40.86
2022-08-04T23:12:51.444Z,40.98
2022-08-04T23:15:18.305Z,41.88
2022-08-04T23:17:48.094Z,41.50
2022-08-04T23:20:23.563Z,42.67
2022-08-04T23:22:59.956Z,42.85
2022-08-04T23:26:07.581Z,43.20
2022-08-04T23:28:31.052Z,42.32
2022-08-04T23:30:57.825Z,42.16
2022-08-04T23:33:24.867Z,42.73
2022-08-04T23:36:11.920Z,43.10
2022-08-04T23:38:39.217Z,43.43
2022-08-04T23:41:17.255Z,42.52
2022-08-04T23:43:55.510Z,42.28
2022-08-04T23:46:23.410Z,42.76
2022-08-04T23:48:52.115Z,42.39
2022-08-04T23:51:19.541Z,43.20
2022-08-04T23:54:02.213Z,42.52
2022-08-04T23:56:32.872Z,42.99
2022-08-04T23:59:03.809Z,42.67
